sensor_id;sensor_type;location;lat;lon;timestamp;temperature;humidity
52159;DHT22;38145;53.182;6.284;2023-04-15T00:00:19;6.60;1.00
52159;DHT22;38145;53.182;6.284;2023-04-15T00:02:46;6.50;1.00
52159;DHT22;38145;53.182;6.284;2023-04-15T00:05:13;6.50;1.00
52159;DHT22;38145;53.182;6.284;2023-04-15T00:07:39;6.50;1.00
52159;DHT22;38145;53.182;6.284;2023-04-15T00:10:07;6.50;1.00
52159;DHT22;38145;53.182;6.284;2023-04-15T00:12:35;6.40;1.00
52159;DHT22;38145;53.182;6.284;2023-04-15T00:15:02;6.40;20.70
52159;DHT22;38145;53.182;6.284;2023-04-15T00:17:29;6.30;1.00
52159;DHT22;38145;53.182;6.284;2023-04-15T00:19:57;6.30;1.00
52159;DHT22;38145;53.182;6.284;2023-04-15T00:22:26;6.30;40.00
52159;DHT22;38145;53.182;6.284;2023-04-15T00:24:55;6.40;29.20
52159;DHT22;38145;53.182;6.284;2023-04-15T00:27:25;6.30;82.80
52159;DHT22;38145;53.182;6.284;2023-04-15T00:29:55;6.30;99.90
52159;DHT22;38145;53.182;6.284;2023-04-15T00:32:22;6.30;99.90
52159;DHT22;38145;53.182;6.284;2023-04-15T00:34:49;6.30;99.90
52159;DHT22;38145;53.182;6.284;2023-04-15T00:37:17;6.30;98.60
52159;DHT22;38145;53.182;6.284;2023-04-15T00:39:45;6.30;37.30
52159;DHT22;38145;53.182;6.284;2023-04-15T00:42:12;6.30;99.90
52159;DHT22;38145;53.182;6.284;2023-04-15T00:44:38;6.30;90.50
52159;DHT22;38145;53.182;6.284;2023-04-15T00:47:05;6.30;98.70
52159;DHT22;38145;53.182;6.284;2023-04-15T00:49:32;6.30;84.70
52159;DHT22;38145;53.182;6.284;2023-04-15T00:52:05;6.30;92.60
52159;DHT22;38145;53.182;6.284;2023-04-15T00:54:31;6.20;94.30
52159;DHT22;38145;53.182;6.284;2023-04-15T00:56:58;6.20;99.90
52159;DHT22;38145;53.182;6.284;2023-04-15T00:59:25;6.20;99.90
52159;DHT22;38145;53.182;6.284;2023-04-15T01:01:53;6.20;99.90
52159;DHT22;38145;53.182;6.284;2023-04-15T01:04:26;6.20;99.90
52159;DHT22;38145;53.182;6.284;2023-04-15T01:06:55;6.10;99.90
52159;DHT22;38145;53.182;6.284;2023-04-15T01:09:26;6.10;99.90
52159;DHT22;38145;53.182;6.284;2023-04-15T01:11:52;6.00;99.90
52159;DHT22;38145;53.182;6.284;2023-04-15T01:14:18;6.00;99.90
52159;DHT22;38145;53.182;6.284;2023-04-15T01:16:45;5.90;99.90
52159;DHT22;38145;53.182;6.284;2023-04-15T01:19:13;5.90;99.90
52159;DHT22;38145;53.182;6.284;2023-04-15T01:21:42;5.90;99.90
52159;DHT22;38145;53.182;6.284;2023-04-15T01:24:09;5.90;99.90
52159;DHT22;38145;53.182;6.284;2023-04-15T01:26:39;5.90;99.90
52159;DHT22;38145;53.182;6.284;2023-04-15T01:29:05;5.90;99.90
52159;DHT22;38145;53.182;6.284;2023-04-15T01:31:33;5.90;99.90
52159;DHT22;38145;53.182;6.284;2023-04-15T01:33:59;5.80;99.90
52159;DHT22;38145;53.182;6.284;2023-04-15T01:36:26;5.80;99.90
52159;DHT22;38145;53.182;6.284;2023-04-15T01:38:53;5.80;99.90
52159;DHT22;38145;53.182;6.284;2023-04-15T01:41:25;5.70;99.90
52159;DHT22;38145;53.182;6.284;2023-04-15T01:43:52;5.80;99.90
52159;DHT22;38145;53.182;6.284;2023-04-15T01:46:22;5.80;99.90
52159;DHT22;38145;53.182;6.284;2023-04-15T01:48:50;5.70;99.90
52159;DHT22;38145;53.182;6.284;2023-04-15T01:51:21;5.70;99.90
52159;DHT22;38145;53.182;6.284;2023-04-15T01:53:48;5.70;99.90
52159;DHT22;38145;53.182;6.284;2023-04-15T01:56:16;5.70;99.90
52159;DHT22;38145;53.182;6.284;2023-04-15T01:58:43;5.70;1.00
52159;DHT22;38145;53.182;6.284;2023-04-15T02:01:13;5.70;99.90
52159;DHT22;38145;53.182;6.284;2023-04-15T02:03:41;5.60;99.90
52159;DHT22;38145;53.182;6.284;2023-04-15T02:06:10;5.60;99.90
52159;DHT22;38145;53.182;6.284;2023-04-15T02:08:36;5.50;99.90
52159;DHT22;38145;53.182;6.284;2023-04-15T02:11:03;5.50;1.00
52159;DHT22;38145;53.182;6.284;2023-04-15T02:13:33;5.50;99.90
52159;DHT22;38145;53.182;6.284;2023-04-15T02:16:02;5.30;99.90
52159;DHT22;38145;53.182;6.284;2023-04-15T02:18:28;5.30;99.90
52159;DHT22;38145;53.182;6.284;2023-04-15T02:20:54;5.20;99.90
52159;DHT22;38145;53.182;6.284;2023-04-15T02:23:24;5.20;1.00
52159;DHT22;38145;53.182;6.284;2023-04-15T02:25:53;5.10;1.00
52159;DHT22;38145;53.182;6.284;2023-04-15T02:28:20;5.10;1.00
52159;DHT22;38145;53.182;6.284;2023-04-15T02:30:50;5.10;1.00
52159;DHT22;38145;53.182;6.284;2023-04-15T02:33:20;5.10;1.00
52159;DHT22;38145;53.182;6.284;2023-04-15T02:35:48;5.10;1.00
52159;DHT22;38145;53.182;6.284;2023-04-15T02:38:14;5.10;1.00
52159;DHT22;38145;53.182;6.284;2023-04-15T02:40:42;5.00;1.00
52159;DHT22;38145;53.182;6.284;2023-04-15T02:43:10;5.00;1.00
52159;DHT22;38145;53.182;6.284;2023-04-15T02:45:38;5.00;1.00
52159;DHT22;38145;53.182;6.284;2023-04-15T02:48:08;5.00;11.50
52159;DHT22;38145;53.182;6.284;2023-04-15T02:50:35;5.00;34.20
52159;DHT22;38145;53.182;6.284;2023-04-15T02:53:06;5.00;71.60
52159;DHT22;38145;53.182;6.284;2023-04-15T02:55:36;5.10;56.90
52159;DHT22;38145;53.182;6.284;2023-04-15T02:58:03;5.10;46.90
52159;DHT22;38145;53.182;6.284;2023-04-15T03:00:30;5.10;62.80
52159;DHT22;38145;53.182;6.284;2023-04-15T03:03:03;5.20;44.50
52159;DHT22;38145;53.182;6.284;2023-04-15T03:05:33;5.20;73.50
52159;DHT22;38145;53.182;6.284;2023-04-15T03:08:00;5.30;99.90
52159;DHT22;38145;53.182;6.284;2023-04-15T03:10:28;5.20;99.90
52159;DHT22;38145;53.182;6.284;2023-04-15T03:12:56;5.20;99.90
52159;DHT22;38145;53.182;6.284;2023-04-15T03:15:22;5.20;88.40
52159;DHT22;38145;53.182;6.284;2023-04-15T03:17:51;5.10;97.10
52159;DHT22;38145;53.182;6.284;2023-04-15T03:20:19;5.10;70.10
52159;DHT22;38145;53.182;6.284;2023-04-15T03:22:46;5.10;32.80
52159;DHT22;38145;53.182;6.284;2023-04-15T03:25:13;5.10;61.30
52159;DHT22;38145;53.182;6.284;2023-04-15T03:27:41;5.10;14.70
52159;DHT22;38145;53.182;6.284;2023-04-15T03:30:09;5.10;16.30
52159;DHT22;38145;53.182;6.284;2023-04-15T03:32:36;5.10;41.00
52159;DHT22;38145;53.182;6.284;2023-04-15T03:35:02;5.00;72.20
52159;DHT22;38145;53.182;6.284;2023-04-15T03:37:29;5.00;91.20
52159;DHT22;38145;53.182;6.284;2023-04-15T03:39:56;5.00;99.90
52159;DHT22;38145;53.182;6.284;2023-04-15T03:42:22;4.90;91.80
52159;DHT22;38145;53.182;6.284;2023-04-15T03:44:49;5.00;93.40
52159;DHT22;38145;53.182;6.284;2023-04-15T03:47:19;5.00;95.10
52159;DHT22;38145;53.182;6.284;2023-04-15T03:49:48;4.90;99.90
52159;DHT22;38145;53.182;6.284;2023-04-15T03:52:15;5.00;99.90
52159;DHT22;38145;53.182;6.284;2023-04-15T03:54:43;5.00;99.90
52159;DHT22;38145;53.182;6.284;2023-04-15T03:57:09;4.90;99.90
52159;DHT22;38145;53.182;6.284;2023-04-15T03:59:41;4.80;99.90
52159;DHT22;38145;53.182;6.284;2023-04-15T04:02:11;4.60;98.10
52159;DHT22;38145;53.182;6.284;2023-04-15T04:04:38;4.60;99.90
52159;DHT22;38145;53.182;6.284;2023-04-15T04:07:13;4.50;99.90
52159;DHT22;38145;53.182;6.284;2023-04-15T04:09:41;4.30;99.90
52159;DHT22;38145;53.182;6.284;2023-04-15T04:12:07;4.20;99.90
52159;DHT22;38145;53.182;6.284;2023-04-15T04:14:38;4.10;99.90
52159;DHT22;38145;53.182;6.284;2023-04-15T04:17:04;4.10;99.90
52159;DHT22;38145;53.182;6.284;2023-04-15T04:19:32;4.00;99.90
52159;DHT22;38145;53.182;6.284;2023-04-15T04:22:01;3.90;99.90
52159;DHT22;38145;53.182;6.284;2023-04-15T04:24:27;3.90;99.90
52159;DHT22;38145;53.182;6.284;2023-04-15T04:26:55;3.80;99.90
52159;DHT22;38145;53.182;6.284;2023-04-15T04:29:22;3.80;99.90
52159;DHT22;38145;53.182;6.284;2023-04-15T04:31:49;3.80;99.90
52159;DHT22;38145;53.182;6.284;2023-04-15T04:34:15;3.90;99.90
52159;DHT22;38145;53.182;6.284;2023-04-15T04:36:43;3.80;99.90
52159;DHT22;38145;53.182;6.284;2023-04-15T04:39:10;3.80;99.90
52159;DHT22;38145;53.182;6.284;2023-04-15T04:41:36;3.80;99.90
52159;DHT22;38145;53.182;6.284;2023-04-15T04:44:04;3.80;99.90
52159;DHT22;38145;53.182;6.284;2023-04-15T04:46:32;3.80;99.90
52159;DHT22;38145;53.182;6.284;2023-04-15T04:49:01;3.80;99.90
52159;DHT22;38145;53.182;6.284;2023-04-15T04:51:28;3.80;99.90
52159;DHT22;38145;53.182;6.284;2023-04-15T04:53:56;3.80;99.90
52159;DHT22;38145;53.182;6.284;2023-04-15T04:56:22;3.70;99.90
52159;DHT22;38145;53.182;6.284;2023-04-15T04:58:50;3.70;99.90
52159;DHT22;38145;53.182;6.284;2023-04-15T05:01:21;3.60;99.90
52159;DHT22;38145;53.182;6.284;2023-04-15T05:03:49;3.60;99.90
52159;DHT22;38145;53.182;6.284;2023-04-15T05:06:19;3.60;99.90
52159;DHT22;38145;53.182;6.284;2023-04-15T05:08:45;3.60;99.90
52159;DHT22;38145;53.182;6.284;2023-04-15T05:11:11;3.60;99.90
52159;DHT22;38145;53.182;6.284;2023-04-15T05:13:37;3.70;99.90
52159;DHT22;38145;53.182;6.284;2023-04-15T05:16:04;3.80;99.90
52159;DHT22;38145;53.182;6.284;2023-04-15T05:18:32;3.80;99.90
52159;DHT22;38145;53.182;6.284;2023-04-15T05:20:58;3.90;99.90
52159;DHT22;38145;53.182;6.284;2023-04-15T05:23:24;4.00;99.90
52159;DHT22;38145;53.182;6.284;2023-04-15T05:25:50;4.00;99.90
52159;DHT22;38145;53.182;6.284;2023-04-15T05:28:16;4.10;99.90
52159;DHT22;38145;53.182;6.284;2023-04-15T05:30:42;4.20;99.90
52159;DHT22;38145;53.182;6.284;2023-04-15T05:33:08;4.30;99.90
52159;DHT22;38145;53.182;6.284;2023-04-15T05:35:35;4.30;99.90
52159;DHT22;38145;53.182;6.284;2023-04-15T05:38:02;4.40;99.90
52159;DHT22;38145;53.182;6.284;2023-04-15T05:40:33;4.50;99.90
52159;DHT22;38145;53.182;6.284;2023-04-15T05:43:01;4.50;99.90
52159;DHT22;38145;53.182;6.284;2023-04-15T05:45:28;4.60;99.90
52159;DHT22;38145;53.182;6.284;2023-04-15T05:47:54;4.70;99.90
52159;DHT22;38145;53.182;6.284;2023-04-15T05:50:25;4.80;99.90
52159;DHT22;38145;53.182;6.284;2023-04-15T05:52:53;4.90;99.90
52159;DHT22;38145;53.182;6.284;2023-04-15T05:55:21;4.90;99.90
52159;DHT22;38145;53.182;6.284;2023-04-15T05:57:50;4.90;99.90
52159;DHT22;38145;53.182;6.284;2023-04-15T06:00:17;4.90;99.90
52159;DHT22;38145;53.182;6.284;2023-04-15T06:02:45;5.00;99.90
52159;DHT22;38145;53.182;6.284;2023-04-15T06:05:12;5.00;99.90
52159;DHT22;38145;53.182;6.284;2023-04-15T06:07:41;5.10;99.90
52159;DHT22;38145;53.182;6.284;2023-04-15T06:10:10;5.20;99.90
52159;DHT22;38145;53.182;6.284;2023-04-15T06:12:36;5.20;99.90
52159;DHT22;38145;53.182;6.284;2023-04-15T06:15:02;5.40;99.90
52159;DHT22;38145;53.182;6.284;2023-04-15T06:17:29;5.40;99.90
52159;DHT22;38145;53.182;6.284;2023-04-15T06:19:58;5.50;99.90
52159;DHT22;38145;53.182;6.284;2023-04-15T06:22:25;5.60;99.90
52159;DHT22;38145;53.182;6.284;2023-04-15T06:24:51;5.60;99.90
52159;DHT22;38145;53.182;6.284;2023-04-15T06:27:18;5.70;99.90
52159;DHT22;38145;53.182;6.284;2023-04-15T06:29:45;5.80;99.90
52159;DHT22;38145;53.182;6.284;2023-04-15T06:32:11;5.80;99.90
52159;DHT22;38145;53.182;6.284;2023-04-15T06:34:38;5.90;99.90
52159;DHT22;38145;53.182;6.284;2023-04-15T06:37:07;6.00;99.90
52159;DHT22;38145;53.182;6.284;2023-04-15T06:39:36;6.10;99.90
52159;DHT22;38145;53.182;6.284;2023-04-15T06:42:03;6.20;99.90
52159;DHT22;38145;53.182;6.284;2023-04-15T06:44:29;6.40;99.90
52159;DHT22;38145;53.182;6.284;2023-04-15T06:46:56;6.50;99.90
52159;DHT22;38145;53.182;6.284;2023-04-15T06:49:22;6.60;99.90
52159;DHT22;38145;53.182;6.284;2023-04-15T06:51:49;6.70;99.90
52159;DHT22;38145;53.182;6.284;2023-04-15T06:54:16;6.80;99.90
52159;DHT22;38145;53.182;6.284;2023-04-15T06:56:43;7.00;99.90
52159;DHT22;38145;53.182;6.284;2023-04-15T06:59:12;7.20;99.90
52159;DHT22;38145;53.182;6.284;2023-04-15T07:01:40;7.50;99.90
52159;DHT22;38145;53.182;6.284;2023-04-15T07:04:06;7.50;99.90
52159;DHT22;38145;53.182;6.284;2023-04-15T07:06:32;7.70;99.90
52159;DHT22;38145;53.182;6.284;2023-04-15T07:09:01;7.80;99.90
52159;DHT22;38145;53.182;6.284;2023-04-15T07:11:28;8.00;99.90
52159;DHT22;38145;53.182;6.284;2023-04-15T07:13:54;8.10;99.90
52159;DHT22;38145;53.182;6.284;2023-04-15T07:16:20;8.10;99.90
52159;DHT22;38145;53.182;6.284;2023-04-15T07:18:47;8.10;99.90
52159;DHT22;38145;53.182;6.284;2023-04-15T07:21:16;8.30;99.90
52159;DHT22;38145;53.182;6.284;2023-04-15T07:23:42;8.30;99.90
52159;DHT22;38145;53.182;6.284;2023-04-15T07:26:11;8.30;99.90
52159;DHT22;38145;53.182;6.284;2023-04-15T07:28:38;8.30;99.90
52159;DHT22;38145;53.182;6.284;2023-04-15T07:31:04;8.40;99.90
52159;DHT22;38145;53.182;6.284;2023-04-15T07:33:31;8.40;99.90
52159;DHT22;38145;53.182;6.284;2023-04-15T07:35:58;8.60;99.90
52159;DHT22;38145;53.182;6.284;2023-04-15T07:38:25;8.70;99.90
52159;DHT22;38145;53.182;6.284;2023-04-15T07:40:51;8.70;99.90
52159;DHT22;38145;53.182;6.284;2023-04-15T07:43:19;8.80;99.90
52159;DHT22;38145;53.182;6.284;2023-04-15T07:45:45;8.90;99.90
52159;DHT22;38145;53.182;6.284;2023-04-15T07:48:12;8.90;99.90
52159;DHT22;38145;53.182;6.284;2023-04-15T07:50:41;9.00;99.90
52159;DHT22;38145;53.182;6.284;2023-04-15T07:53:19;9.10;99.90
52159;DHT22;38145;53.182;6.284;2023-04-15T07:55:50;9.10;99.90
52159;DHT22;38145;53.182;6.284;2023-04-15T07:58:17;9.20;99.90
52159;DHT22;38145;53.182;6.284;2023-04-15T08:00:44;9.20;99.90
52159;DHT22;38145;53.182;6.284;2023-04-15T08:03:11;9.20;99.90
52159;DHT22;38145;53.182;6.284;2023-04-15T08:05:41;9.10;99.90
52159;DHT22;38145;53.182;6.284;2023-04-15T08:08:07;9.10;99.90
52159;DHT22;38145;53.182;6.284;2023-04-15T08:10:34;9.20;99.90
52159;DHT22;38145;53.182;6.284;2023-04-15T08:13:01;9.30;99.90
52159;DHT22;38145;53.182;6.284;2023-04-15T08:15:28;9.20;99.90
52159;DHT22;38145;53.182;6.284;2023-04-15T08:17:55;9.20;99.90
52159;DHT22;38145;53.182;6.284;2023-04-15T08:20:22;8.90;99.90
52159;DHT22;38145;53.182;6.284;2023-04-15T08:22:50;8.90;99.90
52159;DHT22;38145;53.182;6.284;2023-04-15T08:25:18;8.80;99.90
52159;DHT22;38145;53.182;6.284;2023-04-15T08:27:46;8.70;99.90
52159;DHT22;38145;53.182;6.284;2023-04-15T08:30:13;8.70;99.90
52159;DHT22;38145;53.182;6.284;2023-04-15T08:32:44;8.60;99.90
52159;DHT22;38145;53.182;6.284;2023-04-15T08:35:12;8.60;99.90
52159;DHT22;38145;53.182;6.284;2023-04-15T08:37:40;8.50;99.90
52159;DHT22;38145;53.182;6.284;2023-04-15T08:40:07;8.50;99.90
52159;DHT22;38145;53.182;6.284;2023-04-15T08:42:40;8.40;99.90
52159;DHT22;38145;53.182;6.284;2023-04-15T08:45:09;8.40;99.90
52159;DHT22;38145;53.182;6.284;2023-04-15T08:47:40;8.50;99.90
52159;DHT22;38145;53.182;6.284;2023-04-15T08:50:11;8.50;99.90
52159;DHT22;38145;53.182;6.284;2023-04-15T08:52:38;8.50;99.90
52159;DHT22;38145;53.182;6.284;2023-04-15T08:55:05;8.60;99.90
52159;DHT22;38145;53.182;6.284;2023-04-15T08:57:36;8.60;99.90
52159;DHT22;38145;53.182;6.284;2023-04-15T09:00:05;8.60;99.90
52159;DHT22;38145;53.182;6.284;2023-04-15T09:02:32;8.60;99.90
52159;DHT22;38145;53.182;6.284;2023-04-15T09:05:00;8.60;99.90
52159;DHT22;38145;53.182;6.284;2023-04-15T09:07:33;8.50;99.90
52159;DHT22;38145;53.182;6.284;2023-04-15T09:10:03;8.60;99.90
52159;DHT22;38145;53.182;6.284;2023-04-15T09:12:29;8.60;99.90
52159;DHT22;38145;53.182;6.284;2023-04-15T09:14:56;8.60;99.90
52159;DHT22;38145;53.182;6.284;2023-04-15T09:17:25;8.60;99.90
52159;DHT22;38145;53.182;6.284;2023-04-15T09:20:08;8.60;99.90
52159;DHT22;38145;53.182;6.284;2023-04-15T09:22:38;8.60;99.90
52159;DHT22;38145;53.182;6.284;2023-04-15T09:27:50;8.60;99.90
52159;DHT22;38145;53.182;6.284;2023-04-15T09:30:16;8.70;99.90
52159;DHT22;38145;53.182;6.284;2023-04-15T09:32:55;8.90;99.90
52159;DHT22;38145;53.182;6.284;2023-04-15T09:35:25;9.10;99.90
52159;DHT22;38145;53.182;6.284;2023-04-15T09:38:02;9.00;1.00
52159;DHT22;38145;53.182;6.284;2023-04-15T09:40:35;9.00;99.90
52159;DHT22;38145;53.182;6.284;2023-04-15T09:43:02;9.20;99.90
52159;DHT22;38145;53.182;6.284;2023-04-15T09:45:31;9.60;1.00
52159;DHT22;38145;53.182;6.284;2023-04-15T09:48:18;9.80;99.90
52159;DHT22;38145;53.182;6.284;2023-04-15T09:50:47;9.70;99.90
52159;DHT22;38145;53.182;6.284;2023-04-15T09:53:20;9.70;99.90
52159;DHT22;38145;53.182;6.284;2023-04-15T09:55:53;9.90;99.90
52159;DHT22;38145;53.182;6.284;2023-04-15T09:58:22;9.70;1.00
52159;DHT22;38145;53.182;6.284;2023-04-15T10:00:52;9.70;99.90
52159;DHT22;38145;53.182;6.284;2023-04-15T10:03:25;9.60;1.00
52159;DHT22;38145;53.182;6.284;2023-04-15T10:05:57;9.50;99.90
52159;DHT22;38145;53.182;6.284;2023-04-15T10:08:27;9.30;1.00
52159;DHT22;38145;53.182;6.284;2023-04-15T10:10:55;9.40;99.90
52159;DHT22;38145;53.182;6.284;2023-04-15T10:13:28;9.40;99.90
52159;DHT22;38145;53.182;6.284;2023-04-15T10:16:06;9.30;99.90
52159;DHT22;38145;53.182;6.284;2023-04-15T10:18:38;9.30;99.90
52159;DHT22;38145;53.182;6.284;2023-04-15T10:21:06;9.30;99.90
52159;DHT22;38145;53.182;6.284;2023-04-15T10:23:33;9.20;99.90
52159;DHT22;38145;53.182;6.284;2023-04-15T10:26:02;9.10;99.90
52159;DHT22;38145;53.182;6.284;2023-04-15T10:28:31;8.90;99.90
52159;DHT22;38145;53.182;6.284;2023-04-15T10:30:57;8.90;99.90
52159;DHT22;38145;53.182;6.284;2023-04-15T10:33:25;8.90;99.90
52159;DHT22;38145;53.182;6.284;2023-04-15T10:35:54;9.10;1.00
52159;DHT22;38145;53.182;6.284;2023-04-15T10:38:35;9.10;99.90
52159;DHT22;38145;53.182;6.284;2023-04-15T10:41:20;9.10;99.90
52159;DHT22;38145;53.182;6.284;2023-04-15T10:43:54;9.10;99.90
52159;DHT22;38145;53.182;6.284;2023-04-15T10:46:33;9.10;99.90
52159;DHT22;38145;53.182;6.284;2023-04-15T10:49:19;9.10;99.90
52159;DHT22;38145;53.182;6.284;2023-04-15T10:51:57;9.10;99.90
52159;DHT22;38145;53.182;6.284;2023-04-15T10:57:05;9.10;1.00
52159;DHT22;38145;53.182;6.284;2023-04-15T10:59:38;9.20;1.00
52159;DHT22;38145;53.182;6.284;2023-04-15T11:02:40;9.10;99.90
52159;DHT22;38145;53.182;6.284;2023-04-15T11:05:11;9.20;99.90
52159;DHT22;38145;53.182;6.284;2023-04-15T11:13:02;9.10;99.90
52159;DHT22;38145;53.182;6.284;2023-04-15T11:15:40;9.10;99.90
52159;DHT22;38145;53.182;6.284;2023-04-15T11:18:11;9.10;99.90
52159;DHT22;38145;53.182;6.284;2023-04-15T11:20:39;9.10;99.90
52159;DHT22;38145;53.182;6.284;2023-04-15T11:23:10;9.00;99.90
52159;DHT22;38145;53.182;6.284;2023-04-15T11:25:37;8.90;99.90
52159;DHT22;38145;53.182;6.284;2023-04-15T11:28:04;8.90;99.90
52159;DHT22;38145;53.182;6.284;2023-04-15T11:30:34;8.90;99.90
52159;DHT22;38145;53.182;6.284;2023-04-15T11:33:04;9.00;99.90
52159;DHT22;38145;53.182;6.284;2023-04-15T11:35:33;9.00;99.90
52159;DHT22;38145;53.182;6.284;2023-04-15T11:38:07;9.00;99.90
52159;DHT22;38145;53.182;6.284;2023-04-15T11:40:37;8.90;99.90
52159;DHT22;38145;53.182;6.284;2023-04-15T11:43:07;8.70;99.90
52159;DHT22;38145;53.182;6.284;2023-04-15T11:45:36;8.70;99.90
52159;DHT22;38145;53.182;6.284;2023-04-15T11:48:12;8.70;99.90
52159;DHT22;38145;53.182;6.284;2023-04-15T11:50:40;8.70;99.90
52159;DHT22;38145;53.182;6.284;2023-04-15T11:53:08;8.70;99.90
52159;DHT22;38145;53.182;6.284;2023-04-15T11:55:46;8.80;99.90
52159;DHT22;38145;53.182;6.284;2023-04-15T11:58:18;8.80;99.90
52159;DHT22;38145;53.182;6.284;2023-04-15T12:00:47;8.90;99.90
52159;DHT22;38145;53.182;6.284;2023-04-15T12:03:24;8.90;99.90
52159;DHT22;38145;53.182;6.284;2023-04-15T12:06:11;9.00;99.90
52159;DHT22;38145;53.182;6.284;2023-04-15T12:08:48;8.80;99.90
52159;DHT22;38145;53.182;6.284;2023-04-15T12:11:16;8.90;99.90
52159;DHT22;38145;53.182;6.284;2023-04-15T12:13:48;8.80;99.90
52159;DHT22;38145;53.182;6.284;2023-04-15T12:16:19;8.90;99.90
52159;DHT22;38145;53.182;6.284;2023-04-15T12:18:46;8.80;99.90
52159;DHT22;38145;53.182;6.284;2023-04-15T12:21:13;8.80;99.90
52159;DHT22;38145;53.182;6.284;2023-04-15T12:23:47;8.60;99.90
52159;DHT22;38145;53.182;6.284;2023-04-15T12:26:45;8.60;99.90
52159;DHT22;38145;53.182;6.284;2023-04-15T12:29:12;8.60;99.90
52159;DHT22;38145;53.182;6.284;2023-04-15T12:31:52;8.60;99.90
52159;DHT22;38145;53.182;6.284;2023-04-15T12:34:29;8.60;99.90
52159;DHT22;38145;53.182;6.284;2023-04-15T12:36:58;8.60;99.90
52159;DHT22;38145;53.182;6.284;2023-04-15T12:39:26;8.70;99.90
52159;DHT22;38145;53.182;6.284;2023-04-15T12:41:54;8.70;99.90
52159;DHT22;38145;53.182;6.284;2023-04-15T12:44:26;8.60;99.90
52159;DHT22;38145;53.182;6.284;2023-04-15T12:46:54;8.60;99.90
52159;DHT22;38145;53.182;6.284;2023-04-15T12:49:31;8.60;99.90
52159;DHT22;38145;53.182;6.284;2023-04-15T12:52:00;8.60;99.90
52159;DHT22;38145;53.182;6.284;2023-04-15T12:54:28;8.50;99.90
52159;DHT22;38145;53.182;6.284;2023-04-15T12:56:56;8.60;99.90
52159;DHT22;38145;53.182;6.284;2023-04-15T12:59:24;8.70;99.90
52159;DHT22;38145;53.182;6.284;2023-04-15T13:01:51;8.70;99.90
52159;DHT22;38145;53.182;6.284;2023-04-15T13:04:20;8.90;99.90
52159;DHT22;38145;53.182;6.284;2023-04-15T13:06:48;8.90;99.90
52159;DHT22;38145;53.182;6.284;2023-04-15T13:09:14;8.90;99.90
52159;DHT22;38145;53.182;6.284;2023-04-15T13:11:41;9.00;99.90
52159;DHT22;38145;53.182;6.284;2023-04-15T13:14:08;8.90;99.90
52159;DHT22;38145;53.182;6.284;2023-04-15T13:16:37;8.90;99.90
52159;DHT22;38145;53.182;6.284;2023-04-15T13:19:07;8.80;99.90
52159;DHT22;38145;53.182;6.284;2023-04-15T13:21:37;8.90;99.90
52159;DHT22;38145;53.182;6.284;2023-04-15T13:24:03;9.00;99.90
52159;DHT22;38145;53.182;6.284;2023-04-15T13:26:31;8.90;99.90
52159;DHT22;38145;53.182;6.284;2023-04-15T13:28:59;8.90;99.90
52159;DHT22;38145;53.182;6.284;2023-04-15T13:31:26;8.80;99.90
52159;DHT22;38145;53.182;6.284;2023-04-15T13:33:53;8.80;99.90
52159;DHT22;38145;53.182;6.284;2023-04-15T13:36:22;8.70;99.90
52159;DHT22;38145;53.182;6.284;2023-04-15T13:38:49;8.70;99.90
52159;DHT22;38145;53.182;6.284;2023-04-15T13:41:15;8.60;99.90
52159;DHT22;38145;53.182;6.284;2023-04-15T13:43:42;8.70;99.90
52159;DHT22;38145;53.182;6.284;2023-04-15T13:46:15;8.70;99.90
52159;DHT22;38145;53.182;6.284;2023-04-15T13:48:44;8.70;99.90
52159;DHT22;38145;53.182;6.284;2023-04-15T13:51:11;8.60;99.90
52159;DHT22;38145;53.182;6.284;2023-04-15T13:53:40;8.50;99.90
52159;DHT22;38145;53.182;6.284;2023-04-15T13:56:09;8.60;99.90
52159;DHT22;38145;53.182;6.284;2023-04-15T13:58:37;8.60;99.90
52159;DHT22;38145;53.182;6.284;2023-04-15T14:01:04;8.70;99.90
52159;DHT22;38145;53.182;6.284;2023-04-15T14:03:33;8.60;99.90
52159;DHT22;38145;53.182;6.284;2023-04-15T14:06:01;8.50;99.90
52159;DHT22;38145;53.182;6.284;2023-04-15T14:08:34;8.60;99.90
52159;DHT22;38145;53.182;6.284;2023-04-15T14:11:02;8.50;99.90
52159;DHT22;38145;53.182;6.284;2023-04-15T14:13:28;8.50;99.90
52159;DHT22;38145;53.182;6.284;2023-04-15T14:15:56;8.50;99.90
52159;DHT22;38145;53.182;6.284;2023-04-15T14:18:22;8.50;99.90
52159;DHT22;38145;53.182;6.284;2023-04-15T14:20:49;8.50;99.90
52159;DHT22;38145;53.182;6.284;2023-04-15T14:23:18;8.50;99.90
52159;DHT22;38145;53.182;6.284;2023-04-15T14:25:47;8.40;99.90
52159;DHT22;38145;53.182;6.284;2023-04-15T14:28:14;8.40;99.90
52159;DHT22;38145;53.182;6.284;2023-04-15T14:30:41;8.40;99.90
52159;DHT22;38145;53.182;6.284;2023-04-15T14:33:08;8.40;99.90
52159;DHT22;38145;53.182;6.284;2023-04-15T14:35:34;8.30;99.90
52159;DHT22;38145;53.182;6.284;2023-04-15T14:38:11;8.30;99.90
52159;DHT22;38145;53.182;6.284;2023-04-15T14:40:41;8.30;99.90
52159;DHT22;38145;53.182;6.284;2023-04-15T14:43:08;8.30;99.90
52159;DHT22;38145;53.182;6.284;2023-04-15T14:45:34;8.30;99.90
52159;DHT22;38145;53.182;6.284;2023-04-15T14:48:04;8.30;99.90
52159;DHT22;38145;53.182;6.284;2023-04-15T14:50:31;8.30;99.90
52159;DHT22;38145;53.182;6.284;2023-04-15T14:52:58;8.30;99.90
52159;DHT22;38145;53.182;6.284;2023-04-15T14:55:25;8.30;99.90
52159;DHT22;38145;53.182;6.284;2023-04-15T14:57:53;8.30;99.90
52159;DHT22;38145;53.182;6.284;2023-04-15T15:00:22;8.20;99.90
52159;DHT22;38145;53.182;6.284;2023-04-15T15:02:50;8.40;99.90
52159;DHT22;38145;53.182;6.284;2023-04-15T15:05:16;8.30;99.90
52159;DHT22;38145;53.182;6.284;2023-04-15T15:07:43;8.30;99.90
52159;DHT22;38145;53.182;6.284;2023-04-15T15:10:10;8.20;99.90
52159;DHT22;38145;53.182;6.284;2023-04-15T15:12:36;8.20;99.90
52159;DHT22;38145;53.182;6.284;2023-04-15T15:15:03;8.20;99.90
52159;DHT22;38145;53.182;6.284;2023-04-15T15:17:30;8.20;99.90
52159;DHT22;38145;53.182;6.284;2023-04-15T15:19:56;8.20;99.90
52159;DHT22;38145;53.182;6.284;2023-04-15T15:22:24;8.10;99.90
52159;DHT22;38145;53.182;6.284;2023-04-15T15:24:50;8.10;99.90
52159;DHT22;38145;53.182;6.284;2023-04-15T15:27:19;8.10;99.90
52159;DHT22;38145;53.182;6.284;2023-04-15T15:29:47;8.10;99.90
52159;DHT22;38145;53.182;6.284;2023-04-15T15:32:14;8.00;99.90
52159;DHT22;38145;53.182;6.284;2023-04-15T15:34:41;8.00;99.90
52159;DHT22;38145;53.182;6.284;2023-04-15T15:37:08;8.00;99.90
52159;DHT22;38145;53.182;6.284;2023-04-15T15:39:35;7.90;99.90
52159;DHT22;38145;53.182;6.284;2023-04-15T15:42:02;7.90;99.90
52159;DHT22;38145;53.182;6.284;2023-04-15T15:44:29;7.90;99.90
52159;DHT22;38145;53.182;6.284;2023-04-15T15:46:56;7.90;99.90
52159;DHT22;38145;53.182;6.284;2023-04-15T15:49:22;7.80;99.90
52159;DHT22;38145;53.182;6.284;2023-04-15T15:51:50;7.90;99.90
52159;DHT22;38145;53.182;6.284;2023-04-15T15:54:16;7.80;99.90
52159;DHT22;38145;53.182;6.284;2023-04-15T15:56:44;7.90;99.90
52159;DHT22;38145;53.182;6.284;2023-04-15T15:59:12;7.90;99.90
52159;DHT22;38145;53.182;6.284;2023-04-15T16:01:41;7.90;99.90
52159;DHT22;38145;53.182;6.284;2023-04-15T16:04:07;7.90;99.90
52159;DHT22;38145;53.182;6.284;2023-04-15T16:06:35;7.90;99.90